Crystal Falls, MI

8:22 PM CST on February 07, 2016 (GMT -0600)
Bates Tower | | Change Station
CLOSE
Current Station
Personal Weather Station
Location: Iron River, MI
Elevation: 1765 ft
Nearby Weather Stations

Elev 1765 ft 46.10 °N, 88.54 °W | Updated 2 minutes ago

Overcast
Overcast
31.7 °F
Feels Like 26 °F
N
6.0
Wind Variable Wind from SW
Gusts 9.0 mph

Today
High -- | Low -- °F
--% Chance of Precip.
Yesterday
High -- | Low -- °F
Precip. -- in
Pressure 29.57 in
Visibility 9.0 miles
Clouds Overcast 3400 ft
Windchill 26 °F
Dew Point 31 °F
Humidity 95%
Rainfall 0.00 in
Snow Depth Not available.
7:08 AM 5:06 PM
Waning Crescent, 0% visible
METAR KIMT 080154Z AUTO 18005KT 9SM OVC034 01/M01 A2953 RMK AO2 SLP013 T00111011 TSNO
Pressure 29.57 in
Visibility 9.0 miles
Clouds Overcast 3400 ft
Windchill 26 °F
Dew Point 31 °F
Humidity 95%
Rainfall 0.00 in
Snow Depth Not available.
7:08 AM 5:06 PM
Waning Crescent, 0% visible
METAR KIMT 080154Z AUTO 18005KT 9SM OVC034 01/M01 A2953 RMK AO2 SLP013 T00111011 TSNO

10-Day Weather Forecast

Almanac

Astronomy

Feb. 07, 2016 Rise Set
Actual Time
Civil Twilight
Nautical Twilight
Astronomical Twilight
Moon
Length of Visible Light
Length of Day
Tomorrow will be .
, % of the Moon is Illuminated

Today's Extremes

State Highs State Lows

Community

WunderPhotos

Upload Photos

1,891,364 photos uploaded!

WunderBlog® & News

Nearby

Air Quality

  Air Quality AQ Index Pollutant
Not available.

Snow Depth

Station Depth Elevation

Earthquake Activity

City Distance Mag. Time & Date
Minimum magnitude displayed is 2.5.

Coastal Water Temperatures

Place Temperature

Stations

Nearby Weather Stations

Station Location Temp. Windchill Dew Point Humidity Wind Precip. Elev Updated Type
                   

Watches & Warnings

There are currently no watches in effect.